Time;durP1;ratioP1;P1;durP2;ratioP2;P2;SDS_P1;SDS_P2;PMS_P1;PMS_P2;Temp;Humidity;BMP_temperature;BMP_pressure;BME280_temperature;BME280_humidity;BME280_pressure;Samples;Min_cycle;Max_cycle;Signal;HPM_P1;HPM_P2
2023/05/30 00:01:46;;;;;;;7.53;1.67;;;11.80;99.90;;;;;;4907567;29;20052;-34
2023/05/30 00:04:11;;;;;;;10.35;1.67;;;11.80;99.90;;;;;;4908417;29;20052;-34
2023/05/30 00:06:37;;;;;;;6.90;1.48;;;11.80;99.90;;;;;;4911294;29;20402;-34
2023/05/30 00:09:03;;;;;;;8.27;1.60;;;11.70;99.90;;;;;;4905812;29;20139;-34
2023/05/30 00:11:29;;;;;;;7.60;1.70;;;11.70;99.90;;;;;;4904125;29;20139;-34
2023/05/30 00:13:55;;;;;;;10.90;1.42;;;11.70;99.90;;;;;;4905249;29;20131;-34
2023/05/30 00:16:22;;;;;;;11.48;1.50;;;11.70;99.90;;;;;;4904931;29;20052;-34
2023/05/30 00:18:48;;;;;;;8.15;1.60;;;11.70;99.90;;;;;;4908131;29;20112;-34
2023/05/30 00:21:14;;;;;;;11.90;2.72;;;11.70;99.90;;;;;;4915221;29;20056;-35
2023/05/30 00:23:40;;;;;;;10.43;1.65;;;11.70;99.90;;;;;;4904717;29;20490;-34
2023/05/30 00:26:09;;;;;;;6.68;1.48;;;11.70;99.90;;;;;;4902054;29;20135;-35
2023/05/30 00:28:36;;;;;;;10.60;1.95;;;11.70;99.90;;;;;;4907581;29;20600;-34
2023/05/30 00:31:02;;;;;;;14.02;1.40;;;11.70;99.90;;;;;;4903098;29;20063;-36
2023/05/30 00:33:27;;;;;;;8.13;1.60;;;11.80;99.90;;;;;;4907195;29;20055;-35
2023/05/30 00:35:53;;;;;;;9.57;1.25;;;11.80;99.90;;;;;;4905059;29;20114;-34
2023/05/30 00:38:19;;;;;;;5.70;1.52;;;11.80;99.90;;;;;;4906891;29;20063;-35
2023/05/30 00:40:44;;;;;;;11.23;2.22;;;11.90;99.90;;;;;;4902042;29;20048;-35
2023/05/30 00:43:10;;;;;;;4.93;1.30;;;11.90;99.90;;;;;;4908666;29;20060;-35
2023/05/30 00:45:36;;;;;;;5.80;1.58;;;11.90;99.90;;;;;;4907157;29;20048;-35
2023/05/30 00:48:03;;;;;;;9.93;1.98;;;11.90;99.90;;;;;;4906875;29;20209;-35
2023/05/30 00:50:30;;;;;;;8.82;1.98;;;11.90;99.90;;;;;;4907711;29;20079;-35
2023/05/30 00:52:58;;;;;;;9.02;1.50;;;12.00;99.90;;;;;;4906944;29;20134;-35
2023/05/30 00:55:26;;;;;;;7.35;1.63;;;12.00;99.90;;;;;;4909374;29;21048;-36
2023/05/30 00:57:52;;;;;;;10.32;1.85;;;12.00;99.90;;;;;;4907168;29;20628;-35
2023/05/30 01:00:19;;;;;;;13.13;2.53;;;12.00;99.90;;;;;;4905978;29;20135;-35
2023/05/30 01:02:46;;;;;;;6.93;1.15;;;12.00;99.90;;;;;;4907265;29;20059;-35
2023/05/30 01:05:14;;;;;;;11.48;1.85;;;12.00;99.90;;;;;;4906628;29;20534;-35
2023/05/30 01:07:43;;;;;;;5.57;1.50;;;12.00;99.90;;;;;;4909498;29;20048;-35
2023/05/30 01:10:13;;;;;;;7.93;1.55;;;12.10;99.90;;;;;;4904357;29;20059;-35
2023/05/30 01:13:18;;;;;;;6.85;2.13;;;12.10;99.90;;;;;;4906742;29;20083;-35
2023/05/30 01:15:53;;;;;;;8.32;1.58;;;12.10;99.90;;;;;;4877885;29;20086;-35
2023/05/30 01:18:21;;;;;;;12.18;1.90;;;12.10;99.90;;;;;;4909691;29;20556;-35
2023/05/30 01:20:56;;;;;;;8.60;1.30;;;12.10;99.90;;;;;;4905926;29;20059;-35
2023/05/30 01:23:25;;;;;;;7.53;1.45;;;12.10;99.90;;;;;;4901868;29;20072;-35
2023/05/30 01:26:29;;;;;;;7.35;2.00;;;12.10;99.90;;;;;;4895389;29;20092;-35
2023/05/30 01:28:56;;;;;;;5.18;1.73;;;12.10;99.90;;;;;;4905447;29;20056;-35
2023/05/30 01:31:23;;;;;;;7.00;1.55;;;12.10;99.90;;;;;;4903551;29;20079;-35
2023/05/30 01:33:50;;;;;;;6.97;1.45;;;12.10;99.90;;;;;;4906331;29;20085;-35
2023/05/30 01:36:16;;;;;;;7.40;1.42;;;12.00;99.90;;;;;;4907757;29;20495;-35
2023/05/30 01:38:42;;;;;;;8.63;1.10;;;12.00;99.90;;;;;;4907095;29;20055;-35
2023/05/30 01:41:21;;;;;;;9.63;2.10;;;12.00;99.90;;;;;;4905659;29;20064;-35
2023/05/30 01:43:50;;;;;;;11.43;2.20;;;11.90;99.90;;;;;;4900704;29;20151;-35
2023/05/30 01:46:21;;;;;;;4.80;1.50;;;12.00;99.90;;;;;;4901897;29;20143;-35
2023/05/30 01:49:02;;;;;;;8.73;1.60;;;11.90;99.90;;;;;;4906780;29;20052;-35
2023/05/30 01:51:57;;;;;;;6.32;1.85;;;11.90;99.90;;;;;;4901521;29;20311;-35
2023/05/30 01:54:25;;;;;;;7.85;1.27;;;11.90;99.90;;;;;;4896268;29;20044;-35
2023/05/30 01:56:54;;;;;;;7.32;1.65;;;11.90;99.90;;;;;;4910337;29;20044;-35
2023/05/30 01:59:21;;;;;;;8.73;1.48;;;11.90;99.90;;;;;;4911632;29;20724;-35
2023/05/30 02:01:47;;;;;;;4.65;1.40;;;11.90;99.90;;;;;;4909431;29;20536;-35
2023/05/30 02:04:13;;;;;;;9.13;1.67;;;11.90;99.90;;;;;;4909212;29;20071;-35
2023/05/30 02:06:39;;;;;;;7.75;1.52;;;11.90;99.90;;;;;;4914779;29;20498;-35
2023/05/30 02:09:04;;;;;;;10.88;1.92;;;11.90;99.90;;;;;;4911585;29;20060;-35
2023/05/30 02:11:30;;;;;;;6.07;1.27;;;11.80;99.90;;;;;;4907971;29;21196;-35
2023/05/30 02:14:00;;;;;;;6.30;1.60;;;11.80;99.90;;;;;;4911989;29;20394;-35
2023/05/30 02:16:26;;;;;;;4.50;1.48;;;11.80;99.90;;;;;;4913138;29;20052;-35
2023/05/30 02:18:52;;;;;;;4.07;1.58;;;11.80;99.90;;;;;;4912859;29;20126;-35
2023/05/30 02:21:19;;;;;;;5.25;1.63;;;11.80;99.90;;;;;;4911496;29;20108;-35
2023/05/30 02:23:45;;;;;;;8.63;1.65;;;11.80;99.90;;;;;;4912216;29;20055;-35
2023/05/30 02:26:10;;;;;;;10.90;1.98;;;11.80;99.90;;;;;;4908902;29;20055;-35
2023/05/30 02:28:36;;;;;;;3.95;1.42;;;11.70;99.90;;;;;;4911652;29;20052;-35
2023/05/30 02:31:02;;;;;;;8.75;1.85;;;11.70;99.90;;;;;;4909287;29;20063;-35
2023/05/30 02:33:28;;;;;;;5.97;1.52;;;11.70;99.90;;;;;;4910532;29;20515;-34
2023/05/30 02:35:54;;;;;;;7.80;1.80;;;11.70;99.90;;;;;;4913035;29;20496;-34
2023/05/30 02:38:19;;;;;;;7.60;2.08;;;11.70;99.90;;;;;;4912729;29;20086;-34
2023/05/30 02:40:45;;;;;;;5.30;1.45;;;11.70;99.90;;;;;;4908229;29;20064;-34
2023/05/30 02:43:12;;;;;;;4.68;1.75;;;11.70;99.90;;;;;;4911986;29;20462;-34
2023/05/30 02:45:37;;;;;;;4.57;1.30;;;11.70;99.90;;;;;;4909622;29;20056;-34
2023/05/30 02:48:03;;;;;;;6.60;2.15;;;11.70;99.90;;;;;;4915512;29;20395;-34
2023/05/30 02:50:29;;;;;;;4.63;1.45;;;11.70;99.90;;;;;;4909276;29;20083;-35
2023/05/30 02:52:54;;;;;;;4.97;1.67;;;11.70;99.90;;;;;;4912060;29;20056;-35
2023/05/30 02:55:20;;;;;;;7.13;1.63;;;11.60;99.90;;;;;;4913337;29;20056;-35
2023/05/30 02:57:46;;;;;;;6.50;1.50;;;11.60;99.90;;;;;;4910679;29;20056;-35
2023/05/30 03:00:13;;;;;;;4.00;1.55;;;11.60;99.90;;;;;;4904752;29;20429;-35
2023/05/30 03:02:39;;;;;;;6.45;1.95;;;11.60;99.90;;;;;;4910853;29;20076;-34
2023/05/30 03:05:06;;;;;;;5.00;1.17;;;11.60;99.90;;;;;;4908994;29;20087;-35
2023/05/30 03:07:32;;;;;;;9.57;1.88;;;11.60;99.90;;;;;;4910352;29;20063;-34
2023/05/30 03:09:58;;;;;;;5.85;1.50;;;11.60;99.90;;;;;;4908223;29;20064;-35
2023/05/30 03:12:24;;;;;;;7.20;1.35;;;11.60;99.90;;;;;;4908722;29;20197;-35
2023/05/30 03:14:49;;;;;;;10.25;1.70;;;11.60;99.90;;;;;;4905182;29;20060;-35
2023/05/30 03:17:15;;;;;;;9.73;1.42;;;11.60;99.90;;;;;;4909367;29;20052;-34
2023/05/30 03:19:41;;;;;;;6.60;1.50;;;11.60;99.90;;;;;;4909790;29;20140;-35
2023/05/30 03:22:07;;;;;;;8.00;1.42;;;11.60;99.90;;;;;;4909640;29;20498;-35
2023/05/30 03:24:33;;;;;;;5.05;1.65;;;11.60;99.90;;;;;;4909883;29;20114;-36
2023/05/30 03:26:59;;;;;;;4.50;1.40;;;11.60;99.90;;;;;;4907856;29;20052;-35
2023/05/30 03:29:26;;;;;;;9.43;1.63;;;11.50;99.90;;;;;;4911780;29;20052;-35
2023/05/30 03:31:51;;;;;;;9.90;2.00;;;11.50;99.90;;;;;;4909226;29;20056;-35
2023/05/30 03:34:18;;;;;;;7.13;2.00;;;11.60;99.90;;;;;;4917111;29;20050;-35
2023/05/30 03:36:44;;;;;;;6.95;1.75;;;11.60;99.90;;;;;;4914051;29;20103;-35
2023/05/30 03:39:10;;;;;;;9.25;1.77;;;11.60;99.90;;;;;;4912133;29;20052;-35
2023/05/30 03:41:35;;;;;;;5.10;1.48;;;11.70;99.90;;;;;;4912146;29;20072;-35
2023/05/30 03:44:01;;;;;;;5.43;1.42;;;11.70;99.90;;;;;;4919380;29;20452;-35
2023/05/30 03:46:27;;;;;;;6.13;1.40;;;11.70;99.90;;;;;;4913879;29;20040;-35
2023/05/30 03:48:52;;;;;;;8.55;1.67;;;11.70;99.90;;;;;;4913115;29;20480;-34
2023/05/30 03:51:18;;;;;;;3.38;1.02;;;11.80;99.90;;;;;;4907643;29;20059;-34
2023/05/30 03:53:44;;;;;;;7.72;1.45;;;11.70;99.90;;;;;;4912093;29;20066;-35
2023/05/30 03:56:09;;;;;;;9.70;2.78;;;11.70;99.90;;;;;;4912539;29;20048;-35
2023/05/30 03:58:35;;;;;;;9.10;2.00;;;11.70;99.90;;;;;;4910241;29;20056;-34
2023/05/30 04:01:01;;;;;;;8.70;1.90;;;11.70;99.90;;;;;;4891973;29;20052;-35
2023/05/30 04:03:28;;;;;;;6.80;1.70;;;11.80;99.90;;;;;;4912745;29;20052;-34
2023/05/30 04:05:55;;;;;;;9.57;2.47;;;11.80;99.90;;;;;;4914613;29;20067;-34
2023/05/30 04:08:22;;;;;;;7.85;1.67;;;11.80;99.90;;;;;;4903406;29;20056;-34
2023/05/30 04:10:48;;;;;;;7.43;1.35;;;11.80;99.90;;;;;;4914057;29;20076;-35
2023/05/30 04:13:14;;;;;;;3.42;1.20;;;11.80;99.90;;;;;;4915588;29;20051;-35
2023/05/30 04:15:40;;;;;;;5.18;1.30;;;11.80;99.90;;;;;;4910851;29;20056;-34
2023/05/30 04:18:05;;;;;;;2.85;1.30;;;11.80;99.90;;;;;;4906404;29;20107;-34
2023/05/30 04:20:31;;;;;;;4.25;1.30;;;11.80;99.90;;;;;;4906950;29;20106;-35
2023/05/30 04:22:57;;;;;;;8.32;1.50;;;11.90;99.90;;;;;;4906854;29;20633;-34
2023/05/30 04:25:23;;;;;;;7.85;1.70;;;11.90;99.90;;;;;;4909806;29;20052;-34
2023/05/30 04:27:48;;;;;;;6.07;1.35;;;12.00;99.90;;;;;;4909920;29;20059;-35
2023/05/30 04:30:14;;;;;;;7.43;1.45;;;12.00;99.90;;;;;;4909025;29;20055;-35
2023/05/30 04:32:39;;;;;;;6.72;2.25;;;12.00;99.90;;;;;;4905681;29;20051;-34
2023/05/30 04:35:07;;;;;;;5.75;1.42;;;11.90;99.90;;;;;;4908297;29;20147;-34
2023/05/30 04:37:33;;;;;;;5.55;1.40;;;12.00;99.90;;;;;;4909420;29;20052;-34
2023/05/30 04:40:08;;;;;;;5.63;1.63;;;12.00;99.90;;;;;;4916028;29;20143;-34
2023/05/30 04:42:34;;;;;;;6.55;1.50;;;12.00;99.90;;;;;;4911205;29;20142;-34
2023/05/30 04:45:04;;;;;;;6.63;1.50;;;12.00;99.90;;;;;;4914737;29;20095;-35
2023/05/30 04:47:30;;;;;;;7.72;2.25;;;12.00;99.90;;;;;;4914354;29;20063;-34
2023/05/30 04:50:00;;;;;;;7.32;1.70;;;12.00;99.90;;;;;;4911731;29;20052;-34
2023/05/30 04:52:27;;;;;;;8.30;1.63;;;12.00;99.90;;;;;;4909914;29;20500;-34
2023/05/30 04:54:53;;;;;;;11.00;1.70;;;12.00;99.90;;;;;;4912739;29;20071;-34
2023/05/30 04:57:19;;;;;;;8.68;2.00;;;12.00;99.90;;;;;;4910840;29;20052;-35
2023/05/30 04:59:45;;;;;;;6.30;1.88;;;12.00;99.90;;;;;;4895596;29;20060;-35
2023/05/30 05:02:12;;;;;;;8.77;1.52;;;12.10;99.90;;;;;;4890956;29;20059;-35
2023/05/30 05:04:38;;;;;;;6.72;1.73;;;12.10;99.90;;;;;;4908634;29;20897;-34
2023/05/30 05:07:03;;;;;;;5.00;1.42;;;12.10;99.90;;;;;;4911481;29;20055;-34
2023/05/30 05:09:29;;;;;;;8.32;1.58;;;12.10;99.90;;;;;;4901853;29;20541;-35
2023/05/30 05:11:56;;;;;;;6.70;1.58;;;12.10;99.90;;;;;;4910281;29;20246;-34
2023/05/30 05:14:22;;;;;;;9.63;2.20;;;12.20;99.90;;;;;;4909237;29;20586;-34
2023/05/30 05:16:48;;;;;;;8.10;1.80;;;12.20;99.90;;;;;;4907131;29;20060;-34
2023/05/30 05:19:13;;;;;;;10.43;2.00;;;12.20;99.90;;;;;;4906116;29;20048;-34
2023/05/30 05:21:42;;;;;;;6.93;1.70;;;12.30;99.90;;;;;;4910809;29;20056;-34
2023/05/30 05:24:08;;;;;;;8.32;1.85;;;12.40;99.90;;;;;;4910366;29;20053;-34
2023/05/30 05:26:34;;;;;;;9.38;2.08;;;12.50;99.90;;;;;;4910805;29;20052;-35
2023/05/30 05:29:00;;;;;;;11.70;2.03;;;12.50;99.90;;;;;;4906860;29;20059;-34
2023/05/30 05:31:26;;;;;;;7.18;1.80;;;12.60;99.90;;;;;;4911828;29;20462;-34
2023/05/30 05:33:52;;;;;;;6.45;1.83;;;12.70;99.90;;;;;;4908278;29;20078;-35
2023/05/30 05:36:19;;;;;;;13.15;2.63;;;12.70;99.90;;;;;;4910993;29;20434;-35
2023/05/30 05:38:44;;;;;;;10.95;1.90;;;12.80;99.90;;;;;;4905448;29;20048;-35
2023/05/30 05:41:10;;;;;;;4.03;1.27;;;12.80;99.90;;;;;;4909384;29;20090;-36
2023/05/30 05:43:36;;;;;;;7.55;2.05;;;12.90;99.90;;;;;;4913494;29;20071;-35
2023/05/30 05:46:02;;;;;;;6.90;1.63;;;12.90;99.90;;;;;;4906140;29;21182;-36
2023/05/30 05:48:28;;;;;;;6.22;1.65;;;12.90;99.90;;;;;;4913372;29;20076;-36
2023/05/30 05:50:53;;;;;;;7.00;2.47;;;12.90;99.90;;;;;;4909963;29;20877;-35
2023/05/30 05:53:20;;;;;;;7.78;1.42;;;12.90;99.90;;;;;;4915892;29;20052;-35
2023/05/30 05:55:45;;;;;;;6.82;1.60;;;12.90;99.90;;;;;;4907888;29;20119;-35
2023/05/30 05:58:12;;;;;;;7.20;1.30;;;13.00;99.90;;;;;;4908929;29;20060;-36
2023/05/30 06:00:38;;;;;;;14.10;2.83;;;13.10;99.90;;;;;;4909035;29;20055;-35
2023/05/30 06:03:04;;;;;;;4.32;1.48;;;13.10;99.90;;;;;;4908683;29;20063;-35
2023/05/30 06:05:30;;;;;;;9.43;2.05;;;13.20;99.90;;;;;;4913192;29;20052;-35
2023/05/30 06:07:57;;;;;;;6.53;1.65;;;13.20;99.90;;;;;;4912112;29;20048;-35
2023/05/30 06:10:24;;;;;;;8.77;1.67;;;13.20;99.90;;;;;;4913451;29;20079;-35
2023/05/30 06:12:50;;;;;;;7.03;1.75;;;13.30;99.90;;;;;;4906071;29;20048;-35
2023/05/30 06:15:16;;;;;;;8.25;1.30;;;13.30;99.90;;;;;;4915857;29;20058;-36
2023/05/30 06:17:42;;;;;;;9.27;2.33;;;13.30;99.90;;;;;;4908691;29;20052;-35
2023/05/30 06:20:09;;;;;;;5.93;1.35;;;13.40;99.90;;;;;;4905060;29;20060;-35
2023/05/30 06:22:35;;;;;;;6.32;1.58;;;13.50;99.90;;;;;;4908688;29;20063;-35
2023/05/30 06:25:01;;;;;;;9.43;1.50;;;13.50;99.90;;;;;;4903901;29;20570;-35
2023/05/30 06:27:26;;;;;;;6.25;1.48;;;13.60;99.90;;;;;;4905134;29;20056;-35
2023/05/30 06:29:53;;;;;;;9.27;2.22;;;13.60;99.90;;;;;;4907063;29;20048;-36
2023/05/30 06:32:18;;;;;;;5.65;1.85;;;13.70;99.90;;;;;;4888557;29;20060;-33
2023/05/30 06:34:47;;;;;;;4.38;1.70;;;13.70;99.90;;;;;;4907990;29;20051;-34
2023/05/30 06:37:14;;;;;;;8.25;1.65;;;13.70;99.90;;;;;;4913152;29;20060;-35
2023/05/30 06:39:39;;;;;;;9.90;2.03;;;13.80;99.90;;;;;;4905527;29;20174;-35
2023/05/30 06:42:08;;;;;;;5.38;1.40;;;13.80;99.90;;;;;;4907369;29;20091;-34
2023/05/30 06:44:35;;;;;;;5.43;1.63;;;13.80;99.90;;;;;;4908590;29;20138;-34
2023/05/30 06:47:01;;;;;;;6.93;2.00;;;13.80;99.90;;;;;;4909167;29;20162;-34
2023/05/30 06:49:26;;;;;;;8.60;1.45;;;13.80;99.90;;;;;;4908596;29;20510;-34
2023/05/30 06:51:52;;;;;;;10.80;2.00;;;13.80;99.90;;;;;;4886211;29;20048;-34
2023/05/30 06:54:18;;;;;;;6.55;1.50;;;13.80;99.90;;;;;;4907828;29;20142;-34
2023/05/30 06:56:43;;;;;;;6.30;1.90;;;13.80;99.90;;;;;;4909173;29;20127;-34
2023/05/30 06:59:09;;;;;;;9.32;1.75;;;13.80;99.90;;;;;;4884583;29;20122;-34
2023/05/30 07:01:35;;;;;;;7.03;1.63;;;13.90;99.90;;;;;;4905966;29;20064;-35
2023/05/30 07:04:00;;;;;;;11.88;2.60;;;13.90;99.90;;;;;;4910038;29;20055;-34
2023/05/30 07:06:26;;;;;;;6.95;1.80;;;14.00;99.90;;;;;;4897021;29;20059;-34
2023/05/30 07:08:51;;;;;;;7.70;1.67;;;14.10;99.90;;;;;;4905744;29;20387;-34
2023/05/30 07:11:17;;;;;;;7.22;1.77;;;14.20;99.90;;;;;;4908880;29;20521;-35
2023/05/30 07:13:43;;;;;;;6.90;1.45;;;14.30;99.90;;;;;;4910893;29;20072;-34
2023/05/30 07:16:09;;;;;;;8.30;1.67;;;14.30;99.90;;;;;;4908664;29;20143;-34
2023/05/30 07:18:34;;;;;;;11.10;1.63;;;14.30;99.90;;;;;;4909691;29;20052;-35
2023/05/30 07:21:00;;;;;;;7.43;1.48;;;14.20;99.90;;;;;;4908210;29;20142;-34
2023/05/30 07:23:26;;;;;;;8.20;1.73;;;14.20;99.90;;;;;;4909114;29;20056;-34
2023/05/30 07:25:51;;;;;;;7.50;1.58;;;14.20;99.90;;;;;;4907055;29;20139;-34
2023/05/30 07:28:20;;;;;;;4.88;1.60;;;14.30;99.90;;;;;;4891545;29;20217;-35
2023/05/30 07:30:46;;;;;;;6.78;1.50;;;14.30;99.90;;;;;;4903953;29;20494;-35
2023/05/30 07:33:11;;;;;;;6.57;1.30;;;14.40;99.90;;;;;;4919339;29;20407;-35
2023/05/30 07:35:37;;;;;;;5.03;1.30;;;14.40;99.90;;;;;;4909595;29;20067;-34
2023/05/30 07:38:03;;;;;;;7.40;1.58;;;14.50;99.90;;;;;;4906679;29;20086;-34
2023/05/30 07:40:28;;;;;;;4.25;1.00;;;14.50;99.90;;;;;;4913365;29;20139;-35
2023/05/30 07:42:54;;;;;;;5.97;1.70;;;14.50;99.90;;;;;;4894310;29;20194;-35
2023/05/30 07:45:20;;;;;;;4.18;1.13;;;14.50;99.90;;;;;;4905547;29;20052;-35
2023/05/30 07:47:46;;;;;;;4.78;1.00;;;14.50;99.90;;;;;;4902105;29;20048;-34
2023/05/30 07:50:12;;;;;;;9.65;1.55;;;14.50;99.90;;;;;;4902240;29;20148;-35
2023/05/30 07:52:37;;;;;;;5.82;1.23;;;14.50;99.90;;;;;;4899195;29;20198;-35
2023/05/30 07:55:03;;;;;;;4.80;1.60;;;14.60;99.90;;;;;;4906922;29;20064;-34
2023/05/30 07:57:30;;;;;;;11.60;1.63;;;14.60;99.90;;;;;;4911704;29;20043;-34
2023/05/30 07:59:56;;;;;;;5.15;1.33;;;14.50;99.90;;;;;;4905403;29;20040;-34
2023/05/30 08:02:25;;;;;;;4.47;1.10;;;14.30;99.90;;;;;;4904968;29;20040;-34
2023/05/30 08:04:52;;;;;;;6.43;1.30;;;14.30;99.90;;;;;;4911648;29;20063;-35
2023/05/30 08:07:18;;;;;;;3.33;1.20;;;14.40;99.90;;;;;;4904105;29;20048;-35
2023/05/30 08:09:44;;;;;;;1.67;0.73;;;14.40;99.90;;;;;;4901343;29;20766;-35
2023/05/30 08:12:19;;;;;;;3.90;0.90;;;14.40;99.90;;;;;;4907112;29;20251;-35
2023/05/30 08:14:45;;;;;;;3.75;0.95;;;14.40;99.90;;;;;;4913161;29;20052;-35
2023/05/30 08:17:11;;;;;;;5.00;1.05;;;14.40;99.90;;;;;;4899764;29;20228;-35
2023/05/30 08:19:37;;;;;;;7.10;1.13;;;14.40;99.90;;;;;;4911149;29;20115;-35
2023/05/30 08:22:03;;;;;;;4.28;1.33;;;14.30;99.90;;;;;;4903104;29;20410;-35
2023/05/30 08:24:30;;;;;;;6.85;1.55;;;14.30;99.90;;;;;;4901696;29;20048;-35
2023/05/30 08:26:55;;;;;;;9.27;1.30;;;14.30;99.90;;;;;;4899213;29;20507;-35
2023/05/30 08:29:21;;;;;;;5.72;1.50;;;14.30;99.90;;;;;;4900814;29;20051;-35
2023/05/30 08:31:48;;;;;;;5.60;1.23;;;14.30;99.90;;;;;;4897024;29;20079;-35
2023/05/30 08:34:15;;;;;;;4.38;1.95;;;14.20;99.90;;;;;;4904382;29;20099;-35
2023/05/30 08:36:40;;;;;;;3.33;1.20;;;14.20;99.90;;;;;;4898425;29;20052;-35
2023/05/30 08:39:06;;;;;;;2.28;0.85;;;14.30;99.90;;;;;;4904684;29;20048;-35
2023/05/30 08:41:32;;;;;;;4.40;1.35;;;14.30;99.90;;;;;;4900789;29;20075;-35
2023/05/30 08:43:58;;;;;;;5.18;1.48;;;14.30;99.90;;;;;;4901778;29;20068;-35
2023/05/30 08:46:24;;;;;;;4.20;1.23;;;14.30;99.90;;;;;;4896346;29;20048;-35
2023/05/30 08:48:51;;;;;;;3.80;1.00;;;14.40;99.90;;;;;;4898537;29;20067;-35
2023/05/30 08:51:19;;;;;;;5.35;1.40;;;14.50;99.90;;;;;;4894979;29;20569;-35
2023/05/30 08:53:50;;;;;;;2.75;1.77;;;14.50;99.90;;;;;;4901233;29;20494;-35
2023/05/30 08:56:25;;;;;;;5.28;1.00;;;14.50;99.90;;;;;;4889486;29;20056;-36
2023/05/30 08:58:52;;;;;;;5.45;1.23;;;14.50;99.90;;;;;;4907166;29;20549;-35
2023/05/30 09:01:18;;;;;;;4.80;1.13;;;14.60;99.90;;;;;;4904689;29;20131;-35
2023/05/30 09:03:45;;;;;;;6.72;1.20;;;14.60;99.90;;;;;;4895522;29;20502;-35
2023/05/30 09:06:16;;;;;;;4.03;1.25;;;14.60;99.90;;;;;;4903325;29;20052;-36
2023/05/30 09:08:44;;;;;;;6.40;1.10;;;14.60;99.90;;;;;;4903992;29;20152;-36
2023/05/30 09:11:10;;;;;;;3.33;1.00;;;14.70;99.90;;;;;;4900151;29;20104;-36
2023/05/30 09:13:35;;;;;;;3.45;0.85;;;14.70;99.90;;;;;;4895700;29;20056;-35
2023/05/30 09:16:01;;;;;;;3.08;0.93;;;14.80;99.90;;;;;;4898097;29;20434;-36
2023/05/30 09:18:32;;;;;;;3.05;0.80;;;14.90;99.90;;;;;;4904547;29;20052;-35
2023/05/30 09:20:57;;;;;;;5.25;0.77;;;14.90;99.90;;;;;;4905028;29;20075;-36
2023/05/30 09:23:23;;;;;;;1.75;0.60;;;15.00;99.90;;;;;;4901556;29;20417;-36
2023/05/30 09:25:49;;;;;;;3.85;0.80;;;15.00;99.90;;;;;;4902874;29;20139;-36
2023/05/30 09:28:27;;;;;;;5.00;0.82;;;15.10;99.90;;;;;;4902205;29;20057;-36
2023/05/30 09:30:53;;;;;;;3.65;0.98;;;15.20;99.90;;;;;;4897056;29;20058;-36
2023/05/30 09:33:18;;;;;;;3.13;0.73;;;15.30;99.90;;;;;;4905913;29;20071;-35
2023/05/30 09:35:46;;;;;;;7.85;1.13;;;15.40;99.90;;;;;;4904234;29;20698;-36
2023/05/30 09:38:15;;;;;;;8.68;1.00;;;15.40;99.90;;;;;;4909646;29;20573;-36
2023/05/30 09:40:41;;;;;;;2.33;0.82;;;15.40;99.90;;;;;;4903128;29;20063;-36
2023/05/30 09:43:06;;;;;;;2.47;0.70;;;15.50;99.90;;;;;;4907057;29;20511;-36
2023/05/30 09:45:32;;;;;;;6.43;1.33;;;15.50;99.90;;;;;;4907133;29;20055;-36
2023/05/30 09:47:58;;;;;;;2.78;0.85;;;15.50;99.90;;;;;;4907745;29;20060;-36
2023/05/30 09:50:24;;;;;;;4.20;0.80;;;15.50;99.90;;;;;;4898425;29;20443;-36
2023/05/30 09:52:56;;;;;;;2.80;0.90;;;15.50;99.90;;;;;;4907062;29;20494;-35
2023/05/30 09:55:24;;;;;;;3.25;1.33;;;15.60;99.90;;;;;;4903028;29;20052;-35
2023/05/30 09:57:51;;;;;;;3.08;1.00;;;15.70;99.90;;;;;;4901222;29;20142;-35
2023/05/30 10:00:23;;;;;;;2.47;0.85;;;15.70;99.90;;;;;;4905391;29;20056;-35
2023/05/30 10:02:56;;;;;;;4.80;0.80;;;15.70;99.90;;;;;;4906057;29;20147;-35
2023/05/30 10:05:26;;;;;;;2.67;0.70;;;15.70;99.90;;;;;;4905937;29;20139;-35
2023/05/30 10:07:54;;;;;;;4.47;0.88;;;15.80;99.90;;;;;;4899848;29;20080;-35
2023/05/30 10:10:20;;;;;;;2.75;1.10;;;15.80;99.90;;;;;;4903772;29;20506;-35
2023/05/30 10:12:57;;;;;;;4.00;0.80;;;15.80;99.90;;;;;;4906080;29;21651;-35
2023/05/30 10:15:25;;;;;;;7.35;0.95;;;15.80;99.90;;;;;;4904888;29;20064;-35
2023/05/30 10:17:56;;;;;;;4.72;0.73;;;15.70;99.90;;;;;;4907093;29;20063;-35
2023/05/30 10:20:25;;;;;;;3.63;1.00;;;15.70;99.90;;;;;;4908499;29;20642;-35
2023/05/30 10:22:54;;;;;;;3.65;2.45;;;15.60;99.90;;;;;;4910845;29;20055;-35
2023/05/30 10:25:25;;;;;;;1.73;0.68;;;15.70;99.90;;;;;;4914979;29;20044;-35
2023/05/30 10:27:53;;;;;;;1.90;0.85;;;15.80;99.90;;;;;;4909605;29;20107;-35
2023/05/30 10:30:23;;;;;;;2.25;0.70;;;16.00;99.90;;;;;;4908609;29;20056;-35
2023/05/30 10:32:56;;;;;;;3.08;0.77;;;16.20;99.90;;;;;;4901722;29;20048;-35
2023/05/30 10:35:22;;;;;;;2.97;0.80;;;16.20;99.90;;;;;;4905278;29;20061;-35
2023/05/30 10:37:49;;;;;;;3.47;0.95;;;16.20;99.90;;;;;;4906174;29;20063;-35
2023/05/30 10:40:42;;;;;;;3.78;0.90;;;16.30;99.90;;;;;;4894853;29;20410;-35
2023/05/30 10:43:57;;;;;;;1.92;0.63;;;16.20;99.90;;;;;;4910554;29;20131;-35
2023/05/30 10:46:27;;;;;;;4.32;0.70;;;16.20;99.90;;;;;;4815838;29;20054;-35
2023/05/30 10:49:03;;;;;;;1.85;0.60;;;16.20;99.90;;;;;;4830206;29;20081;-35
2023/05/30 10:51:30;;;;;;;3.90;0.73;;;16.10;99.90;;;;;;4879762;29;20513;-35
2023/05/30 10:53:59;;;;;;;2.85;0.90;;;16.00;99.90;;;;;;4911375;29;20047;-35
2023/05/30 10:56:42;;;;;;;2.22;0.85;;;15.90;99.90;;;;;;4915206;29;20085;-35
2023/05/30 10:59:11;;;;;;;;;;;15.80;99.90;;;;;;4905495;29;20088;-35
2023/05/30 11:01:38;;;;;;;1.15;0.60;;;15.80;99.90;;;;;;4907796;29;19979;-35
2023/05/30 11:04:12;;;;;;;2.22;0.70;;;15.70;99.90;;;;;;4911203;29;20139;-35
2023/05/30 11:06:42;;;;;;;1.55;0.68;;;15.70;99.90;;;;;;4904350;29;20049;-35
2023/05/30 11:09:10;;;;;;;1.67;0.70;;;15.80;99.90;;;;;;4900094;29;20048;-35
2023/05/30 11:11:43;;;;;;;1.40;0.50;;;15.80;99.90;;;;;;4909772;29;20142;-35
2023/05/30 11:14:11;;;;;;;3.72;0.57;;;15.90;99.90;;;;;;4910701;29;20055;-35
2023/05/30 11:16:55;;;;;;;1.33;0.65;;;15.90;99.90;;;;;;4906486;29;20120;-35
2023/05/30 11:19:33;;;;;;;2.05;0.70;;;15.90;99.90;;;;;;4902808;29;20056;-35
2023/05/30 11:22:03;;;;;;;1.42;0.77;;;15.80;99.90;;;;;;4906322;29;20418;-35
2023/05/30 11:24:31;;;;;;;1.23;0.60;;;15.80;99.90;;;;;;4909545;29;20056;-35
2023/05/30 11:26:59;;;;;;;1.60;0.70;;;15.70;99.90;;;;;;4906919;29;20458;-35
2023/05/30 11:29:35;;;;;;;4.15;0.93;;;15.80;99.90;;;;;;4903439;29;20048;-35
2023/05/30 11:32:01;;;;;;;5.75;0.95;;;15.80;99.90;;;;;;4907180;29;20108;-35
2023/05/30 11:34:27;;;;;;;3.55;1.35;;;15.90;99.90;;;;;;4906174;29;20562;-35
2023/05/30 11:36:55;;;;;;;3.40;0.47;;;15.80;99.90;;;;;;4901835;29;20511;-35
2023/05/30 11:39:21;;;;;;;2.38;0.60;;;15.80;99.90;;;;;;4913805;29;20060;-35
2023/05/30 11:41:48;;;;;;;5.82;1.10;;;15.80;99.90;;;;;;4909833;29;20048;-35
2023/05/30 11:44:14;;;;;;;3.65;0.75;;;15.90;99.90;;;;;;4908912;29;20122;-35
2023/05/30 11:46:41;;;;;;;3.00;0.60;;;16.00;99.90;;;;;;4902351;29;20902;-35
2023/05/30 11:49:07;;;;;;;0.80;0.40;;;16.00;99.90;;;;;;4893570;29;20053;-35
2023/05/30 11:51:33;;;;;;;1.65;0.57;;;16.20;99.90;;;;;;4885960;29;20074;-35
2023/05/30 11:53:59;;;;;;;2.97;0.75;;;16.30;99.90;;;;;;4907414;29;20059;-36
2023/05/30 11:56:29;;;;;;;1.20;0.45;;;16.50;99.90;;;;;;4902835;29;20060;-37
2023/05/30 11:58:58;;;;;;;1.25;0.40;;;16.70;99.90;;;;;;4906073;29;20059;-36
2023/05/30 12:01:25;;;;;;;1.67;0.40;;;16.80;99.90;;;;;;4903315;29;20056;-36
2023/05/30 12:03:53;;;;;;;4.88;0.40;;;16.80;99.90;;;;;;4910133;29;20052;-36
2023/05/30 12:06:18;;;;;;;2.80;0.40;;;16.90;99.90;;;;;;4909864;29;20044;-36
2023/05/30 12:08:49;;;;;;;1.85;0.55;;;16.90;99.90;;;;;;4909642;29;20112;-36
2023/05/30 12:11:15;;;;;;;1.05;0.30;;;16.90;99.90;;;;;;4904805;29;21889;-36
2023/05/30 12:13:42;;;;;;;1.95;0.50;;;16.80;99.90;;;;;;4909645;29;20070;-36
2023/05/30 12:16:13;;;;;;;1.02;0.30;;;16.80;99.90;;;;;;4908159;29;20108;-36
2023/05/30 12:18:39;;;;;;;1.45;0.40;;;16.90;99.90;;;;;;4905888;29;20079;-36
2023/05/30 12:21:06;;;;;;;0.70;0.40;;;16.90;99.90;;;;;;4906035;29;20056;-36
2023/05/30 12:23:32;;;;;;;0.93;0.40;;;16.90;99.90;;;;;;4887947;29;20059;-36
2023/05/30 12:25:58;;;;;;;1.15;0.40;;;16.90;99.90;;;;;;4905665;29;20188;-36
2023/05/30 12:28:24;;;;;;;1.17;0.30;;;16.90;99.90;;;;;;4909461;29;20213;-36
2023/05/30 12:30:53;;;;;;;4.10;1.05;;;16.80;99.90;;;;;;4920247;29;20432;-37
2023/05/30 12:33:24;;;;;;;3.35;0.60;;;16.70;99.90;;;;;;4912382;29;20048;-35
2023/05/30 12:35:54;;;;;;;1.20;0.50;;;16.70;99.90;;;;;;4910736;29;20484;-35
2023/05/30 12:38:21;;;;;;;3.80;0.52;;;16.60;99.90;;;;;;4903367;29;21139;-35
2023/05/30 12:40:50;;;;;;;2.55;0.57;;;16.60;99.90;;;;;;4908823;29;20063;-35
2023/05/30 12:43:26;;;;;;;1.92;0.52;;;16.60;99.90;;;;;;4908408;29;20501;-35
2023/05/30 12:45:52;;;;;;;3.92;0.63;;;16.60;99.90;;;;;;4902932;29;20543;-35
2023/05/30 12:48:17;;;;;;;1.75;0.55;;;16.50;99.90;;;;;;4912564;29;20059;-35